CheckWX is a tool to help pilots better visualize weather data.  It is not intended as a substitute for an official pre-flight weather briefing.

19:52:40 UTC

GVBA METAR
Rabil Airport
Rabil, Cape Verde
Current

53 mins ago

GVBA 261900Z 01009KT 9999 FEW015 24/17 Q1013 NOSIG
Observed
May-26 @ 19:00 UTC
Wind
  • 010° at 9 KTS
Visibility
10,000+ meters
Flight Rules
VFR
Cloud Levels
  • Few at 1,500' AGL
Temperature
24°C / 75°F
Dewpoint
17°C / 63°F
Humidity
65%
Altimeter
29.91" Hg
Pressure
1012.92 hPa
Previous

2 hours ago

GVBA 261800Z 36009KT 9999 FEW015 25/17 Q1013 NOSIG
Observed
May-26 @ 18:00 UTC
Wind
  • 360° at 9 KTS
Visibility
10,000+ meters
Flight Rules
VFR
Cloud Levels
  • Few at 1,500' AGL
Temperature
25°C / 77°F
Dewpoint
17°C / 63°F
Humidity
61%
Altimeter
29.91" Hg
Pressure
1012.92 hPa
Previous

3 hours ago

GVBA 261700Z 01010KT 9999 FEW015 25/17 Q1013 NOSIG
Observed
May-26 @ 17:00 UTC
Wind
  • 010° at 10 KTS
Visibility
10,000+ meters
Flight Rules
VFR
Cloud Levels
  • Few at 1,500' AGL
Temperature
25°C / 77°F
Dewpoint
17°C / 63°F
Humidity
61%
Altimeter
29.91" Hg
Pressure
1012.92 hPa